Time;durP1;ratioP1;P1;durP2;ratioP2;P2;SDS_P1;SDS_P2;PMS_P1;PMS_P2;Temp;Humidity;BMP_temperature;BMP_pressure;BME280_temperature;BME280_humidity;BME280_pressure;Samples;Min_cycle;Max_cycle;Signal;HPM_P1;HPM_P2
2021/08/08 00:01:59;;;;;;;0.40;0.10;;;;;;;19.61;67.09;99648.86;126416;1090;114127;-76
2021/08/08 00:04:27;;;;;;;0.40;0.10;;;;;;;19.59;66.95;99657.05;126511;1092;102970;-76
2021/08/08 00:06:54;;;;;;;0.40;0.10;;;;;;;19.61;67.16;99651.56;126445;1093;114296;-75
2021/08/08 00:09:21;;;;;;;0.40;0.10;;;;;;;19.65;67.32;99662.00;126560;1090;102561;-73
2021/08/08 00:11:50;;;;;;;0.40;0.10;;;;;;;19.63;67.33;99646.88;126574;1090;102972;-76
2021/08/08 00:14:17;;;;;;;0.40;0.10;;;;;;;19.60;67.14;99641.73;126471;1088;114031;-75
2021/08/08 00:16:45;;;;;;;0.40;0.10;;;;;;;19.57;67.08;99637.42;126547;1090;102913;-76
2021/08/08 00:19:12;;;;;;;0.40;0.10;;;;;;;19.62;66.81;99635.23;126465;1089;113985;-76
2021/08/08 00:21:42;;;;;;;0.40;0.10;;;;;;;19.64;66.90;99635.11;126538;1090;102972;-76
2021/08/08 00:24:10;;;;;;;0.40;0.10;;;;;;;19.60;66.70;99629.06;126440;1090;113973;-77
2021/08/08 00:26:37;;;;;;;0.40;0.10;;;;;;;19.62;66.74;99620.84;126607;1089;102894;-74
2021/08/08 00:29:04;;;;;;;0.40;0.10;;;;;;;19.65;66.37;99626.03;126481;1088;103502;-76
2021/08/08 00:31:31;;;;;;;0.40;0.10;;;;;;;19.68;66.48;99626.63;126409;1089;113916;-77
2021/08/08 00:33:59;;;;;;;0.40;0.10;;;;;;;19.73;66.68;99623.59;126496;1090;102962;-76
2021/08/08 00:36:26;;;;;;;0.40;0.10;;;;;;;19.71;66.61;99628.24;126415;1088;114080;-75
2021/08/08 00:38:56;;;;;;;0.40;0.10;;;;;;;19.72;66.63;99619.16;126574;1090;102897;-74
2021/08/08 00:41:24;;;;;;;0.40;0.10;;;;;;;19.73;66.35;99615.48;126523;1090;102883;-75
2021/08/08 00:43:51;;;;;;;0.40;0.10;;;;;;;19.78;66.17;99613.30;126474;1090;113969;-77
2021/08/08 00:46:18;;;;;;;0.40;0.10;;;;;;;19.81;66.35;99617.64;126527;1090;103023;-76
2021/08/08 00:48:47;;;;;;;0.40;0.10;;;;;;;19.75;66.33;99608.11;126424;1090;114079;-76
2021/08/08 00:51:15;;;;;;;0.40;0.10;;;;;;;19.79;66.69;99606.92;126554;1090;102876;-76
2021/08/08 00:53:43;;;;;;;0.40;0.03;;;;;;;19.81;66.66;99602.27;126509;1090;102959;-76
2021/08/08 00:56:11;;;;;;;0.40;0.10;;;;;;;19.78;66.33;99607.89;126475;1090;113918;-76
2021/08/08 00:58:38;;;;;;;0.40;0.00;;;;;;;19.78;66.70;99607.02;126544;1090;103020;-76
2021/08/08 01:01:07;;;;;;;0.40;0.10;;;;;;;19.77;66.58;99608.02;126409;1090;114346;-76
2021/08/08 01:03:34;;;;;;;0.40;0.10;;;;;;;19.78;66.48;99604.31;126536;1089;103003;-76
2021/08/08 01:06:16;;;;;;;0.40;0.10;;;;;;;19.75;66.84;99594.60;126544;1089;102896;-76
2021/08/08 01:08:54;;;;;;;0.40;0.10;;;;;;;19.73;66.98;99591.17;126404;1090;113745;-76
2021/08/08 01:11:23;;;;;;;0.40;0.10;;;;;;;19.66;66.76;99593.49;126540;1090;102990;-75
2021/08/08 01:13:52;;;;;;;0.40;0.10;;;;;;;19.67;66.99;99583.53;126455;1093;114143;-76
2021/08/08 01:16:20;;;;;;;0.40;0.10;;;;;;;19.67;67.08;99586.23;126521;1090;103147;-76
2021/08/08 01:18:49;;;;;;;0.40;0.10;;;;;;;19.71;67.10;99585.02;126389;1090;114570;-75
2021/08/08 01:21:17;;;;;;;0.40;0.10;;;;;;;19.69;67.42;99570.78;126590;1090;102983;-76
2021/08/08 01:23:50;;;;;;;0.40;0.10;;;;;;;19.66;67.51;99566.48;126558;1092;103061;-76
2021/08/08 01:26:18;;;;;;;0.40;0.10;;;;;;;19.69;67.33;99557.28;126478;1090;114026;-75
2021/08/08 01:28:45;;;;;;;0.40;0.10;;;;;;;19.74;67.40;99554.20;126615;1090;102903;-76
2021/08/08 01:31:12;;;;;;;0.40;0.00;;;;;;;19.76;67.51;99555.80;126433;1090;114254;-75
2021/08/08 01:33:40;;;;;;;0.40;0.10;;;;;;;19.75;67.43;99548.67;126617;1090;102873;-76
2021/08/08 01:36:07;;;;;;;0.40;0.10;;;;;;;19.74;67.68;99552.38;126575;1091;103113;-76
2021/08/08 01:38:37;;;;;;;0.40;0.10;;;;;;;19.71;67.43;99550.77;126527;1090;113907;-75
2021/08/08 01:41:06;;;;;;;0.40;0.10;;;;;;;19.78;67.43;99552.98;126570;1090;102953;-75
2021/08/08 01:43:33;;;;;;;0.40;0.00;;;;;;;19.80;67.51;99549.17;126421;1090;114193;-75
2021/08/08 01:46:04;;;;;;;0.40;0.00;;;;;;;19.77;67.50;99543.17;126649;1090;103000;-76
2021/08/08 01:48:38;;;;;;;0.40;0.10;;;;;;;19.72;67.77;99538.12;126425;1092;113906;-75
2021/08/08 01:51:06;;;;;;;0.40;0.00;;;;;;;19.69;68.09;99528.41;126662;1089;103056;-75
2021/08/08 01:53:33;;;;;;;0.40;0.10;;;;;;;19.68;67.68;99533.94;126608;1091;102884;-75
2021/08/08 01:56:01;;;;;;;0.40;0.00;;;;;;;19.73;68.09;99529.03;126504;1090;113970;-75
2021/08/08 01:58:29;;;;;;;0.40;0.00;;;;;;;19.68;67.88;99537.48;126623;1090;103270;-76
2021/08/08 02:00:58;;;;;;;0.40;0.10;;;;;;;19.60;67.93;99525.58;126466;1090;114235;-76
2021/08/08 02:03:39;;;;;;;0.40;0.10;;;;;;;19.60;68.54;99531.83;126548;1090;103020;-76
2021/08/08 02:06:08;;;;;;;0.40;0.10;;;;;;;19.61;68.49;99520.05;126580;1090;102956;-76
2021/08/08 02:08:36;;;;;;;0.40;0.00;;;;;;;19.66;68.27;99507.05;126426;1090;114111;-76
2021/08/08 02:11:04;;;;;;;0.40;0.10;;;;;;;19.72;68.41;99508.40;126584;1090;103033;-75
2021/08/08 02:13:31;;;;;;;0.40;0.10;;;;;;;19.76;68.06;99498.22;126442;1090;113925;-76
2021/08/08 02:15:59;;;;;;;0.40;0.10;;;;;;;19.78;68.02;99496.23;126594;1090;102939;-76
2021/08/08 02:18:26;;;;;;;0.40;0.10;;;;;;;19.77;68.42;99492.69;126471;1090;114080;-76
2021/08/08 02:20:53;;;;;;;0.40;0.10;;;;;;;19.77;68.21;99479.18;126530;1089;102939;-75
2021/08/08 02:23:20;;;;;;;0.40;0.10;;;;;;;19.80;68.47;99486.19;126605;1090;104634;-76
2021/08/08 02:25:50;;;;;;;0.40;0.00;;;;;;;19.80;68.69;99475.38;126469;1090;113925;-76
2021/08/08 02:28:18;;;;;;;0.40;0.10;;;;;;;19.76;68.36;99482.01;126559;1089;103101;-75
2021/08/08 02:30:46;;;;;;;0.40;0.10;;;;;;;19.70;68.94;99486.91;126479;1090;114121;-75
2021/08/08 02:33:14;;;;;;;0.40;0.10;;;;;;;19.70;68.78;99478.81;126584;1089;102908;-75
2021/08/08 02:35:41;;;;;;;0.40;0.10;;;;;;;19.68;68.87;99474.50;126591;1090;102892;-75
2021/08/08 02:38:08;;;;;;;0.40;0.00;;;;;;;19.65;68.61;99469.36;126452;1089;114093;-75
2021/08/08 02:40:35;;;;;;;0.40;0.10;;;;;;;19.62;69.06;99470.45;126574;1090;102910;-75
2021/08/08 02:43:03;;;;;;;0.40;0.10;;;;;;;19.61;69.28;99481.39;126518;1089;114385;-75
2021/08/08 02:45:30;;;;;;;0.40;0.10;;;;;;;19.61;69.32;99478.69;126611;1090;102985;-75
2021/08/08 02:47:57;;;;;;;0.40;0.10;;;;;;;19.62;69.47;99470.45;126606;1089;103177;-75
2021/08/08 02:50:24;;;;;;;0.40;0.10;;;;;;;19.60;69.40;99466.16;126397;1089;114104;-75
2021/08/08 02:52:53;;;;;;;0.40;0.10;;;;;;;19.60;69.39;99461.60;126571;1090;102900;-75
2021/08/08 02:55:21;;;;;;;0.40;0.10;;;;;;;19.59;69.57;99467.98;126496;1090;114248;-75
2021/08/08 02:57:48;;;;;;;0.40;0.10;;;;;;;19.57;69.78;99464.55;126569;1090;103010;-75
2021/08/08 03:00:16;;;;;;;0.40;0.10;;;;;;;19.56;69.56;99465.53;126576;1089;102932;-76
2021/08/08 03:02:43;;;;;;;0.40;0.03;;;;;;;19.57;69.60;99463.67;126423;1090;113832;-74
2021/08/08 03:05:10;;;;;;;0.40;0.10;;;;;;;19.58;69.68;99463.58;126675;1088;103004;-75
2021/08/08 03:07:38;;;;;;;0.40;0.10;;;;;;;19.55;69.45;99461.98;126489;1090;113992;-76
2021/08/08 03:10:06;;;;;;;0.40;0.10;;;;;;;19.61;69.62;99467.88;126519;1090;103101;-75
2021/08/08 03:12:33;;;;;;;0.40;0.10;;;;;;;19.60;69.96;99463.45;126473;1090;114139;-76
2021/08/08 03:15:00;;;;;;;0.40;0.10;;;;;;;19.61;70.02;99466.03;126548;1090;103139;-75
2021/08/08 03:17:27;;;;;;;0.40;0.10;;;;;;;19.62;69.87;99462.36;126571;1090;103380;-76
2021/08/08 03:19:54;;;;;;;0.40;0.10;;;;;;;19.61;69.72;99460.63;126469;1089;113931;-75
2021/08/08 03:22:22;;;;;;;0.40;0.10;;;;;;;19.64;69.85;99462.23;126579;1088;102916;-75
2021/08/08 03:24:49;;;;;;;0.40;0.10;;;;;;;19.63;69.98;99455.98;126441;1089;114585;-75
2021/08/08 03:27:16;;;;;;;0.40;0.10;;;;;;;19.65;69.63;99455.85;126508;1090;103069;-74
2021/08/08 03:29:44;;;;;;;0.40;0.10;;;;;;;19.65;69.93;99450.45;126562;1090;102872;-75
2021/08/08 03:32:11;;;;;;;0.40;0.10;;;;;;;19.68;69.56;99444.80;126484;1088;114034;-75
2021/08/08 03:34:38;;;;;;;0.40;0.10;;;;;;;19.71;69.83;99437.31;126741;1088;102999;-75
2021/08/08 03:37:06;;;;;;;0.40;0.10;;;;;;;19.75;69.63;99434.36;126474;1090;114181;-75
2021/08/08 03:39:33;;;;;;;0.40;0.00;;;;;;;19.77;69.61;99440.51;126591;1090;102875;-75
2021/08/08 03:42:00;;;;;;;0.40;0.10;;;;;;;19.83;69.14;99440.91;126540;1090;102985;-75
2021/08/08 03:44:27;;;;;;;0.40;0.00;;;;;;;19.90;69.30;99433.16;126409;1089;112873;-74
2021/08/08 03:46:54;;;;;;;0.40;0.10;;;;;;;19.94;69.03;99433.75;126659;1088;102886;-76
2021/08/08 03:49:21;;;;;;;0.40;0.05;;;;;;;20.01;68.60;99435.84;126541;1089;114000;-76
2021/08/08 03:51:49;;;;;;;0.40;0.00;;;;;;;20.10;68.84;99434.24;126589;1088;102950;-75
2021/08/08 03:54:16;;;;;;;0.40;0.10;;;;;;;20.15;68.54;99428.45;126577;1090;104331;-76
2021/08/08 03:56:43;;;;;;;0.40;0.10;;;;;;;20.17;68.08;99432.74;126428;1088;113768;-75
2021/08/08 03:59:10;;;;;;;0.40;0.10;;;;;;;20.18;68.48;99437.17;126646;1090;102901;-76
2021/08/08 04:01:38;;;;;;;0.40;0.10;;;;;;;20.19;67.89;99440.72;126418;1090;114251;-75
2021/08/08 04:04:05;;;;;;;0.40;0.10;;;;;;;20.19;68.30;99438.90;126608;1089;103080;-75
2021/08/08 04:06:32;;;;;;;0.40;0.00;;;;;;;20.21;67.91;99431.50;126443;1089;114278;-76
2021/08/08 04:09:00;;;;;;;0.40;0.00;;;;;;;20.21;68.07;99438.77;126592;1090;102883;-74
2021/08/08 04:11:27;;;;;;;0.40;0.10;;;;;;;20.18;68.00;99455.25;126629;1089;103076;-76
2021/08/08 04:13:54;;;;;;;0.40;0.10;;;;;;;20.20;67.88;99458.67;126360;1090;114100;-74
2021/08/08 04:16:22;;;;;;;0.40;0.00;;;;;;;20.23;67.86;99462.97;126562;1092;102933;-75
2021/08/08 04:18:49;;;;;;;0.40;0.10;;;;;;;20.26;68.02;99462.70;126437;1089;114225;-75
2021/08/08 04:21:16;;;;;;;0.40;0.00;;;;;;;20.20;68.20;99459.52;126519;1090;103087;-75
2021/08/08 04:23:44;;;;;;;0.40;0.10;;;;;;;20.13;68.83;99471.83;126573;1089;102900;-76
2021/08/08 04:26:11;;;;;;;0.40;0.08;;;;;;;20.11;68.63;99465.67;126361;1090;113903;-75
2021/08/08 04:28:41;;;;;;;0.40;0.03;;;;;;;20.15;69.60;99479.81;126577;1090;102916;-75
2021/08/08 04:31:09;;;;;;;0.40;0.10;;;;;;;20.19;69.23;99476.75;126403;1090;114067;-75
2021/08/08 04:33:36;;;;;;;0.40;0.10;;;;;;;20.18;69.65;99469.61;126564;1090;103380;-75
2021/08/08 04:36:04;;;;;;;0.40;0.00;;;;;;;20.21;69.75;99468.51;126546;1090;102940;-77
2021/08/08 04:38:32;;;;;;;0.40;0.10;;;;;;;20.21;70.02;99487.43;126442;1091;113929;-76
2021/08/08 04:40:59;;;;;;;0.40;0.07;;;;;;;20.18;69.93;99458.80;126591;1090;102967;-76
2021/08/08 04:43:26;;;;;;;0.40;0.00;;;;;;;20.26;69.99;99473.52;126436;1089;113014;-76
2021/08/08 04:45:54;;;;;;;0.40;0.03;;;;;;;20.40;69.91;99459.73;126547;1090;102869;-76
2021/08/08 04:48:21;;;;;;;0.40;0.00;;;;;;;20.37;69.93;99452.73;126578;1090;102941;-75
2021/08/08 04:50:48;;;;;;;0.40;0.00;;;;;;;20.42;69.58;99456.89;126499;1089;113737;-76
2021/08/08 04:53:17;;;;;;;0.40;0.10;;;;;;;20.49;69.90;99450.86;126529;1090;103169;-76
2021/08/08 04:55:45;;;;;;;0.40;0.00;;;;;;;20.61;69.50;99465.20;126430;1090;114105;-75
2021/08/08 04:58:13;;;;;;;0.40;0.00;;;;;;;20.78;69.06;99480.08;126621;1089;103033;-76
2021/08/08 05:00:44;;;;;;;0.40;0.00;;;;;;;20.76;69.23;99519.07;126450;1089;114082;-75
2021/08/08 05:03:11;;;;;;;0.40;0.00;;;;;;;20.70;69.58;99537.53;126469;1090;102884;-76
2021/08/08 05:05:39;;;;;;;0.40;0.00;;;;;;;20.64;69.64;99535.28;126574;1090;102968;-75
2021/08/08 05:08:06;;;;;;;0.40;0.10;;;;;;;20.71;69.46;99522.14;126438;1089;113916;-75
2021/08/08 05:10:34;;;;;;;0.40;0.10;;;;;;;20.74;69.94;99524.61;126636;1089;103021;-74
2021/08/08 05:13:01;;;;;;;0.40;0.00;;;;;;;20.82;70.40;99515.83;126423;1090;114200;-75
2021/08/08 05:15:28;;;;;;;0.40;0.10;;;;;;;20.84;70.38;99505.75;126561;1088;102993;-76
2021/08/08 05:17:55;;;;;;;0.40;0.10;;;;;;;20.83;70.94;99504.03;126585;1090;102890;-76
2021/08/08 05:20:23;;;;;;;0.40;0.00;;;;;;;20.63;71.52;99505.66;126455;1090;113890;-76
2021/08/08 05:22:50;;;;;;;0.40;0.10;;;;;;;20.47;71.53;99506.06;126573;1090;102993;-76
2021/08/08 05:25:18;;;;;;;0.40;0.07;;;;;;;20.36;72.17;99488.02;126433;1090;113918;-74
2021/08/08 05:27:45;;;;;;;0.40;0.10;;;;;;;20.29;72.17;99497.63;126560;1090;103023;-76
2021/08/08 05:30:13;;;;;;;0.40;0.10;;;;;;;20.35;72.28;99500.69;126554;1090;102913;-76
2021/08/08 05:32:41;;;;;;;0.40;0.08;;;;;;;20.46;71.50;99510.63;126441;1090;114281;-75
2021/08/08 05:35:09;;;;;;;0.40;0.10;;;;;;;20.59;70.70;99518.57;126595;1090;103043;-76
2021/08/08 05:37:36;;;;;;;0.40;0.10;;;;;;;20.65;71.75;99509.95;126468;1089;113934;-76
2021/08/08 05:40:06;;;;;;;0.40;0.10;;;;;;;20.67;71.56;99502.59;126593;1090;103122;-76
2021/08/08 05:42:33;;;;;;;0.40;0.10;;;;;;;20.73;71.62;99505.77;126450;1093;113763;-76
2021/08/08 05:45:02;;;;;;;0.40;0.10;;;;;;;20.73;71.75;99508.48;126563;1090;103409;-75
2021/08/08 05:47:29;;;;;;;0.40;0.10;;;;;;;20.75;70.52;99501.95;126576;1090;103041;-76
2021/08/08 05:49:57;;;;;;;0.40;0.10;;;;;;;20.73;70.86;99503.95;126389;1090;114430;-76
2021/08/08 05:52:24;;;;;;;0.40;0.10;;;;;;;20.67;71.48;99501.70;126581;1090;102953;-74
2021/08/08 05:54:51;;;;;;;0.40;0.10;;;;;;;20.72;70.96;99513.05;126460;1090;114135;-76
2021/08/08 05:57:19;;;;;;;0.40;0.00;;;;;;;20.80;71.19;99507.84;126579;1090;103027;-75
2021/08/08 05:59:46;;;;;;;0.40;0.10;;;;;;;20.79;70.96;99513.39;126611;1090;103026;-76
2021/08/08 06:02:14;;;;;;;0.40;0.10;;;;;;;20.78;71.40;99507.13;126459;1090;114209;-76
2021/08/08 06:04:42;;;;;;;0.40;0.10;;;;;;;20.79;71.07;99510.69;126608;1090;103012;-75
2021/08/08 06:07:09;;;;;;;0.40;0.00;;;;;;;20.81;71.30;99506.02;126470;1090;114195;-76
2021/08/08 06:09:37;;;;;;;0.40;0.00;;;;;;;20.82;71.60;99507.72;126622;1090;103009;-76
2021/08/08 06:12:07;;;;;;;0.40;0.10;;;;;;;20.87;71.49;99514.48;126578;1090;103023;-76
2021/08/08 06:14:35;;;;;;;0.40;0.00;;;;;;;21.05;71.38;99522.89;126466;1090;114059;-76
2021/08/08 06:17:03;;;;;;;0.40;0.00;;;;;;;21.19;71.55;99520.86;126644;1090;103000;-76
2021/08/08 06:19:31;;;;;;;0.40;0.10;;;;;;;21.23;71.03;99521.47;126442;1090;114177;-75
2021/08/08 06:21:58;;;;;;;0.40;0.00;;;;;;;21.43;70.26;99538.72;126596;1090;103326;-76
2021/08/08 06:24:25;;;;;;;0.40;0.10;;;;;;;21.51;69.86;99544.33;126534;1090;103063;-76
2021/08/08 06:26:53;;;;;;;0.40;0.00;;;;;;;21.52;70.55;99538.78;126474;1090;112747;-75
2021/08/08 06:29:20;;;;;;;0.40;0.00;;;;;;;21.62;70.78;99540.73;126562;1089;102911;-76
2021/08/08 06:31:47;;;;;;;0.40;0.10;;;;;;;21.71;70.74;99543.52;126377;1090;113889;-76
2021/08/08 06:34:14;;;;;;;0.40;0.00;;;;;;;21.86;70.10;99543.18;126578;1090;102881;-76
2021/08/08 06:36:43;;;;;;;0.40;0.00;;;;;;;22.02;69.38;99537.27;126559;1090;114156;-76
2021/08/08 06:39:10;;;;;;;0.40;0.00;;;;;;;22.12;69.06;99548.15;126600;1089;103125;-75
2021/08/08 06:41:37;;;;;;;0.40;0.00;;;;;;;22.26;69.17;99552.34;126585;1092;103023;-76
2021/08/08 06:44:05;;;;;;;0.40;0.00;;;;;;;22.35;68.96;99546.13;126378;1090;114021;-76
2021/08/08 06:46:32;;;;;;;0.40;0.10;;;;;;;22.42;68.03;99550.02;126652;1090;103045;-75
2021/08/08 06:49:00;;;;;;;0.40;0.10;;;;;;;22.40;67.14;99560.14;126467;1090;114075;-75
2021/08/08 06:51:28;;;;;;;0.40;0.10;;;;;;;22.38;67.03;99564.86;126491;1089;103084;-77
2021/08/08 06:53:55;;;;;;;0.40;0.00;;;;;;;22.39;67.52;99571.98;126507;1090;103501;-76
2021/08/08 06:56:22;;;;;;;0.40;0.00;;;;;;;22.42;67.62;99581.70;126504;1090;113943;-76
2021/08/08 06:58:50;;;;;;;0.40;0.00;;;;;;;22.43;67.98;99596.99;126566;1090;103078;-76
2021/08/08 07:01:18;;;;;;;0.40;0.00;;;;;;;22.41;68.08;99596.28;126403;1090;114112;-75
2021/08/08 07:03:46;;;;;;;0.40;0.10;;;;;;;22.32;67.01;99601.48;126512;1090;103306;-76
2021/08/08 07:06:13;;;;;;;0.40;0.00;;;;;;;22.15;67.27;99613.84;126515;1090;103020;-76
2021/08/08 07:08:41;;;;;;;0.40;0.10;;;;;;;22.07;67.53;99621.75;126412;1089;115199;-76
2021/08/08 07:11:09;;;;;;;0.40;0.00;;;;;;;21.96;67.86;99619.13;126609;1090;102846;-78
2021/08/08 07:13:40;;;;;;;0.40;0.00;;;;;;;21.84;67.79;99637.31;126412;1090;113950;-76
2021/08/08 07:16:08;;;;;;;0.40;0.00;;;;;;;21.75;68.31;99641.66;126605;1090;103339;-76
2021/08/08 07:18:35;;;;;;;0.40;0.10;;;;;;;21.65;68.08;99633.47;126480;1090;114099;-76
2021/08/08 07:21:03;;;;;;;0.40;0.10;;;;;;;21.66;68.89;99637.91;126497;1092;102909;-76
2021/08/08 07:23:30;;;;;;;0.40;0.00;;;;;;;21.64;68.42;99630.89;126551;1089;102951;-75
2021/08/08 07:25:57;;;;;;;0.40;0.10;;;;;;;21.67;69.26;99645.05;126463;1089;115329;-76
2021/08/08 07:28:25;;;;;;;0.40;0.00;;;;;;;21.66;69.08;99661.41;126591;1089;103028;-76
2021/08/08 07:30:52;;;;;;;0.40;0.00;;;;;;;21.67;69.02;99655.02;126459;1090;114072;-75
2021/08/08 07:33:19;;;;;;;0.40;0.00;;;;;;;21.63;68.56;99665.27;126538;1093;103679;-75
2021/08/08 07:35:48;;;;;;;0.40;0.10;;;;;;;21.62;68.72;99668.09;126631;1090;102964;-75
2021/08/08 07:38:15;;;;;;;0.40;0.00;;;;;;;21.58;68.78;99666.63;126405;1090;113920;-76
2021/08/08 07:40:43;;;;;;;0.40;0.00;;;;;;;21.61;69.13;99677.23;126611;1090;103014;-76
2021/08/08 07:43:12;;;;;;;0.40;0.00;;;;;;;21.54;69.53;99675.02;126443;1090;114695;-75
2021/08/08 07:45:39;;;;;;;0.40;0.00;;;;;;;21.58;69.30;99680.17;126575;1090;104815;-76
2021/08/08 07:48:07;;;;;;;0.40;0.00;;;;;;;21.50;69.56;99684.37;126548;1090;102877;-75
2021/08/08 07:50:35;;;;;;;0.40;0.10;;;;;;;21.51;69.27;99705.06;126405;1090;113911;-76
2021/08/08 07:53:02;;;;;;;0.40;0.00;;;;;;;21.58;69.84;99704.56;126602;1093;102936;-76
2021/08/08 07:55:30;;;;;;;0.40;0.00;;;;;;;21.57;69.79;99713.70;126467;1090;113926;-76
2021/08/08 07:57:57;;;;;;;0.40;0.00;;;;;;;21.53;69.34;99727.48;126557;1090;102875;-76
2021/08/08 08:00:25;;;;;;;0.40;0.03;;;;;;;21.50;69.18;99733.13;126542;1090;102920;-76
2021/08/08 08:02:53;;;;;;;0.40;0.00;;;;;;;21.46;69.30;99744.34;126435;1090;113890;-73
2021/08/08 08:05:20;;;;;;;0.40;0.00;;;;;;;21.33;68.71;99753.48;126631;1093;103339;-76
2021/08/08 08:07:48;;;;;;;0.40;0.00;;;;;;;21.14;69.14;99751.42;126425;1089;113972;-73
2021/08/08 08:10:16;;;;;;;0.40;0.00;;;;;;;21.04;69.67;99753.98;126562;1089;102981;-76
2021/08/08 08:12:43;;;;;;;0.40;0.07;;;;;;;21.04;69.29;99764.82;126455;1088;114223;-75
2021/08/08 08:15:11;;;;;;;0.40;0.00;;;;;;;21.13;70.67;99762.38;126535;1089;103031;-74
2021/08/08 08:17:38;;;;;;;0.40;0.10;;;;;;;21.18;69.13;99769.14;126625;1088;103661;-75
2021/08/08 08:20:06;;;;;;;0.40;0.00;;;;;;;21.14;68.72;99764.08;126386;1089;113856;-75
2021/08/08 08:22:33;;;;;;;0.40;0.10;;;;;;;21.16;68.69;99759.41;126558;1090;102913;-75
2021/08/08 08:25:00;;;;;;;0.40;0.07;;;;;;;21.12;68.70;99772.33;126438;1090;114124;-74
2021/08/08 08:27:28;;;;;;;0.40;0.00;;;;;;;21.15;68.68;99773.94;126489;1089;102930;-76
2021/08/08 08:29:57;;;;;;;0.40;0.00;;;;;;;21.15;68.21;99780.23;126499;1090;102878;-75
2021/08/08 08:32:24;;;;;;;0.40;0.00;;;;;;;21.18;67.85;99773.70;126400;1090;113982;-75
2021/08/08 08:34:51;;;;;;;0.40;0.10;;;;;;;21.23;68.31;99792.28;126597;1089;103065;-75
2021/08/08 08:37:19;;;;;;;0.40;0.00;;;;;;;21.16;67.64;99800.03;126473;1088;113949;-74
2021/08/08 08:39:47;;;;;;;0.40;0.10;;;;;;;21.11;67.74;99802.24;126530;1088;103030;-73
2021/08/08 08:42:14;;;;;;;0.40;0.10;;;;;;;21.03;67.62;99811.86;126605;1088;103370;-75
2021/08/08 08:44:41;;;;;;;0.40;0.00;;;;;;;21.03;67.50;99813.68;126415;1090;114037;-75
2021/08/08 08:47:13;;;;;;;0.40;0.00;;;;;;;21.03;67.55;99813.68;126581;1089;103036;-75
2021/08/08 08:49:48;;;;;;;0.40;0.10;;;;;;;20.97;67.83;99806.92;126431;1088;114141;-75
2021/08/08 08:52:21;;;;;;;0.40;0.10;;;;;;;20.98;67.79;99807.77;126661;1090;103332;-75
2021/08/08 08:54:48;;;;;;;0.40;0.00;;;;;;;21.05;67.81;99800.90;126487;1088;117133;-75
2021/08/08 08:57:16;;;;;;;0.40;0.00;;;;;;;20.99;67.12;99790.55;126468;1090;102882;-75
2021/08/08 08:59:50;;;;;;;0.40;0.00;;;;;;;20.97;67.85;99806.92;126520;1088;103008;-76
2021/08/08 09:02:17;;;;;;;0.40;0.10;;;;;;;20.97;67.81;99817.75;126501;1090;113929;-74
2021/08/08 09:04:44;;;;;;;0.40;0.10;;;;;;;20.95;68.28;99822.44;126497;1092;102890;-73
2021/08/08 09:07:12;;;;;;;0.40;0.00;;;;;;;21.06;68.16;99840.53;126446;1090;114225;-72
2021/08/08 09:09:39;;;;;;;0.40;0.00;;;;;;;21.18;68.20;99855.80;126419;1092;103119;-72
2021/08/08 09:12:07;;;;;;;0.40;0.05;;;;;;;21.19;67.41;99862.06;126516;1091;104080;-73
2021/08/08 09:14:35;;;;;;;0.40;0.10;;;;;;;21.24;67.88;99867.98;126435;1089;113922;-72
2021/08/08 09:17:04;;;;;;;0.40;0.00;;;;;;;21.37;67.20;99876.00;126524;1088;102911;-72
2021/08/08 09:19:34;;;;;;;0.40;0.10;;;;;;;21.48;67.50;99872.42;126363;1090;114024;-72
2021/08/08 09:22:01;;;;;;;0.40;0.00;;;;;;;21.52;66.40;99880.16;126390;1090;104140;-72
2021/08/08 09:24:36;;;;;;;0.40;0.00;;;;;;;21.52;66.55;99888.30;126406;1089;102916;-73
2021/08/08 09:27:05;;;;;;;0.40;0.00;;;;;;;21.54;66.50;99891.79;126410;1090;113670;-72
2021/08/08 09:29:40;;;;;;;0.40;0.10;;;;;;;21.58;66.23;99884.28;126525;1090;102900;-72
2021/08/08 09:32:08;;;;;;;0.40;0.10;;;;;;;21.65;66.43;99879.23;126390;1092;114347;-73
2021/08/08 09:34:43;;;;;;;0.40;0.00;;;;;;;21.60;65.39;99876.88;126579;1090;102980;-73
2021/08/08 09:37:18;;;;;;;0.40;0.00;;;;;;;21.60;65.49;99903.97;126385;1089;114109;-73
2021/08/08 09:39:50;;;;;;;0.40;0.00;;;;;;;21.58;65.86;99913.20;126441;1090;102978;-72
2021/08/08 09:42:25;;;;;;;0.40;0.00;;;;;;;21.59;65.46;99910.38;126521;1089;103016;-72
2021/08/08 09:44:59;;;;;;;0.40;0.00;;;;;;;21.60;65.90;99903.97;126493;1090;113921;-71
2021/08/08 09:47:44;;;;;;;0.40;0.00;;;;;;;21.71;65.97;99919.36;126563;1089;102993;-72
2021/08/08 09:50:16;;;;;;;0.40;0.00;;;;;;;21.68;64.94;99938.59;126389;1090;113979;-71
2021/08/08 09:52:50;;;;;;;0.40;0.00;;;;;;;21.68;65.03;99950.28;126509;1090;102905;-71
2021/08/08 09:55:31;;;;;;;0.40;0.00;;;;;;;21.67;65.17;99947.70;126342;1089;114271;-71
2021/08/08 09:57:58;;;;;;;0.40;0.00;;;;;;;21.67;65.36;99943.16;126550;1088;102897;-71
2021/08/08 10:00:27;;;;;;;0.40;0.00;;;;;;;21.77;65.11;99943.27;126501;1089;103061;-71
2021/08/08 10:02:55;;;;;;;0.40;0.00;;;;;;;21.82;64.57;99945.59;126303;1090;113124;-71
2021/08/08 10:05:24;;;;;;;0.40;0.00;;;;;;;21.83;64.30;99944.61;126446;1090;102906;-72
2021/08/08 10:07:51;;;;;;;0.40;0.00;;;;;;;21.70;64.46;99945.61;126312;1090;114040;-72
2021/08/08 10:10:19;;;;;;;0.40;0.00;;;;;;;21.65;64.41;99946.98;126512;1089;103038;-73
2021/08/08 10:13:13;;;;;;;0.40;0.00;;;;;;;21.70;64.59;99947.48;126428;1089;114097;-72
2021/08/08 10:15:43;;;;;;;0.40;0.00;;;;;;;21.83;64.63;99953.63;126602;1089;102875;-72
2021/08/08 10:18:13;;;;;;;0.40;0.00;;;;;;;21.98;64.28;99947.92;126526;1090;103035;-71
2021/08/08 10:20:42;;;;;;;0.40;0.10;;;;;;;22.13;63.06;99962.10;126352;1090;114017;-71
2021/08/08 10:23:17;;;;;;;0.40;0.10;;;;;;;22.18;63.46;99968.02;126624;1091;103004;-72
2021/08/08 10:25:46;;;;;;;0.40;0.10;;;;;;;22.35;62.68;99969.34;126484;1090;114062;-72
2021/08/08 10:28:14;;;;;;;0.40;0.00;;;;;;;22.52;63.66;99974.23;126529;1090;102907;-72
2021/08/08 10:30:42;;;;;;;0.40;0.00;;;;;;;22.69;62.83;99980.97;126421;1090;113071;-72
2021/08/08 10:33:10;;;;;;;0.40;0.00;;;;;;;22.70;60.75;99987.28;126444;1089;102907;-72
2021/08/08 10:35:42;;;;;;;0.40;0.00;;;;;;;22.70;60.28;99985.41;126501;1090;102910;-72
2021/08/08 10:38:10;;;;;;;0.40;0.00;;;;;;;22.82;59.59;99991.66;126365;1090;114052;-71
2021/08/08 10:40:40;;;;;;;0.40;0.00;;;;;;;23.48;58.35;100003.33;126449;1090;104098;-71
2021/08/08 10:43:09;;;;;;;0.40;0.00;;;;;;;23.75;57.16;100016.38;126478;1090;114334;-73
2021/08/08 10:45:38;;;;;;;0.40;0.00;;;;;;;23.86;57.34;100005.39;126467;1090;102894;-73
2021/08/08 10:48:10;;;;;;;0.40;0.00;;;;;;;23.89;56.79;100009.73;126309;1089;102977;-72
2021/08/08 10:50:40;;;;;;;0.40;0.00;;;;;;;23.89;56.68;100015.17;126359;1090;114169;-73
2021/08/08 10:53:20;;;;;;;0.40;0.00;;;;;;;23.89;57.32;100020.61;126421;1090;102984;-74
2021/08/08 10:55:49;;;;;;;0.40;0.00;;;;;;;24.05;56.30;100022.83;126465;1090;114291;-72
2021/08/08 10:58:17;;;;;;;0.40;0.00;;;;;;;23.86;56.64;100024.43;126425;1089;102921;-72
2021/08/08 11:00:44;;;;;;;0.40;0.00;;;;;;;23.79;56.64;100031.42;126344;1092;114464;-74
2021/08/08 11:03:16;;;;;;;0.40;0.00;;;;;;;23.70;57.03;100037.66;126358;1092;102879;-73
2021/08/08 11:05:45;;;;;;;0.40;0.00;;;;;;;23.60;56.30;100039.45;126377;1090;102917;-73
2021/08/08 11:08:13;;;;;;;0.40;0.00;;;;;;;23.56;56.87;100047.01;126339;1090;114157;-73
2021/08/08 11:10:42;;;;;;;0.40;0.00;;;;;;;23.59;56.99;100043.16;126362;1090;103036;-73
2021/08/08 11:13:21;;;;;;;0.40;0.00;;;;;;;23.63;57.58;100047.33;126450;1090;114519;-72
2021/08/08 11:15:49;;;;;;;0.40;0.00;;;;;;;23.67;57.48;100043.35;126630;1090;102890;-73
2021/08/08 11:18:17;;;;;;;0.40;0.00;;;;;;;23.74;57.31;100043.67;126589;1088;102904;-73
2021/08/08 11:20:44;;;;;;;0.40;0.00;;;;;;;23.71;57.54;100051.13;126431;1090;114327;-74
2021/08/08 11:23:12;;;;;;;0.40;0.00;;;;;;;23.75;57.22;100045.41;126557;1089;103020;-73